createdAt,value
2023-04-18T00:02:16.998Z,101218.84
2023-04-18T00:07:20.677Z,101221.13
2023-04-18T00:12:24.321Z,101231.28
2023-04-18T00:17:29.783Z,101238.75
2023-04-18T00:22:33.623Z,101226.34
2023-04-18T00:27:37.324Z,101224.88
2023-04-18T00:32:42.685Z,101206.88
2023-04-18T00:37:46.352Z,101203.06
2023-04-18T00:42:49.968Z,101215.13
2023-04-18T00:47:56.635Z,101209.06
2023-04-18T00:53:00.391Z,101207.88
2023-04-18T00:58:04.028Z,101205.88
2023-04-18T01:03:09.313Z,101209.72
2023-04-18T01:08:13.397Z,101214.47
2023-04-18T01:13:18.763Z,101211.47
2023-04-18T01:18:24.051Z,101204.22
2023-04-18T01:23:27.950Z,101213.88
2023-04-18T01:28:37.133Z,101208.38
2023-04-18T01:33:40.906Z,101206.09
2023-04-18T01:38:44.514Z,101191.78
2023-04-18T01:43:49.767Z,101191.53
2023-04-18T01:48:53.446Z,101195.31
2023-04-18T01:53:57.090Z,101185.19
2023-04-18T01:59:02.394Z,101169.78
2023-04-18T02:04:06.042Z,101174.06
2023-04-18T02:09:09.733Z,101164.03
2023-04-18T02:14:15.220Z,101167.38
2023-04-18T02:19:18.984Z,101181.59
2023-04-18T02:24:23.121Z,101168.47
2023-04-18T02:29:29.404Z,101154.53
2023-04-18T02:34:33.067Z,101161.94
2023-04-18T02:39:36.761Z,101163.75
2023-04-18T02:44:42.058Z,101150.94
2023-04-18T02:49:45.761Z,101147.56
2023-04-18T02:54:49.416Z,101145.00
2023-04-18T02:59:54.681Z,101152.94
2023-04-18T03:04:58.323Z,101146.09
2023-04-18T03:10:02.025Z,101141.03
2023-04-18T03:15:08.609Z,101135.06
2023-04-18T03:20:12.512Z,101148.38
2023-04-18T03:25:16.289Z,101142.13
2023-04-18T03:30:21.807Z,101142.88
2023-04-18T03:35:25.469Z,101142.50
2023-04-18T03:40:29.046Z,101156.13
2023-04-18T03:45:34.401Z,101149.09
2023-04-18T03:50:38.030Z,101148.06
2023-04-18T03:55:42.311Z,101132.06
2023-04-18T04:00:47.615Z,101135.69
2023-04-18T04:05:51.312Z,101145.72
2023-04-18T04:10:54.993Z,101159.13
2023-04-18T04:16:00.317Z,101154.41
2023-04-18T04:21:05.031Z,101167.84
2023-04-18T04:26:08.686Z,101175.31
2023-04-18T04:31:13.982Z,101177.94
2023-04-18T04:36:18.905Z,101165.81
2023-04-18T04:41:22.708Z,101176.06
2023-04-18T04:46:28.294Z,101172.47
2023-04-18T04:51:32.101Z,101169.53
2023-04-18T04:56:35.801Z,101176.25
2023-04-18T05:01:41.263Z,101182.63
2023-04-18T05:06:45.002Z,101172.88
2023-04-18T05:11:48.669Z,101183.03
2023-04-18T05:16:53.967Z,101189.31
2023-04-18T05:21:57.656Z,101187.38
2023-04-18T05:27:01.351Z,101183.22
2023-04-18T05:32:07.009Z,101182.31
2023-04-18T05:37:10.600Z,101184.59
2023-04-18T05:42:14.877Z,101185.28
2023-04-18T05:47:20.239Z,101194.78
2023-04-18T05:52:24.040Z,101220.19
2023-04-18T05:57:27.657Z,101224.66
2023-04-18T06:02:32.992Z,101226.81
2023-04-18T06:07:36.986Z,101224.22
2023-04-18T06:12:40.641Z,101217.94
2023-04-18T06:17:45.965Z,101215.31
2023-04-18T06:22:49.653Z,101197.97
2023-04-18T06:27:53.325Z,101190.41
2023-04-18T06:32:58.636Z,101188.69
2023-04-18T06:38:02.373Z,101194.16
2023-04-18T06:43:06.175Z,101203.84
2023-04-18T06:48:11.432Z,101208.47
2023-04-18T06:53:15.716Z,101224.09
2023-04-18T06:58:19.410Z,101233.91
2023-04-18T07:03:24.766Z,101251.34
2023-04-18T07:08:28.501Z,101251.34
2023-04-18T07:13:32.144Z,101256.81
2023-04-18T07:18:38.547Z,101264.84
2023-04-18T07:23:42.347Z,101271.09
2023-04-18T07:28:45.933Z,101266.03
2023-04-18T07:33:51.164Z,101283.38
2023-04-18T07:38:54.808Z,101289.78
2023-04-18T07:43:58.393Z,101282.91
2023-04-18T07:49:03.674Z,101287.53
2023-04-18T07:54:07.406Z,101297.25
2023-04-18T07:59:11.802Z,101318.09
2023-04-18T08:04:17.380Z,101322.50
2023-04-18T08:09:21.181Z,101334.63
2023-04-18T08:14:25.551Z,101330.34
2023-04-18T08:19:30.824Z,101324.47
2023-04-18T08:24:34.479Z,101318.44
2023-04-18T08:29:38.148Z,101320.16
2023-04-18T08:34:44.407Z,101319.28
2023-04-18T08:39:47.328Z,101325.38
2023-04-18T08:44:51.059Z,101309.88
2023-04-18T08:49:56.618Z,101308.09
2023-04-18T08:55:00.240Z,101310.81
2023-04-18T09:00:04.040Z,101304.03
2023-04-18T09:05:14.749Z,101303.31
2023-04-18T09:10:27.165Z,101300.63
2023-04-18T09:15:31.200Z,101315.13
2023-04-18T09:20:39.478Z,101298.72
2023-04-18T09:25:45.630Z,101305.81
2023-04-18T09:30:48.749Z,101306.75
2023-04-18T09:35:54.109Z,101306.03
2023-04-18T09:41:08.837Z,101302.53
2023-04-18T09:46:12.617Z,101301.66
2023-04-18T09:51:18.649Z,101301.63
2023-04-18T09:56:26.519Z,101293.03
2023-04-18T10:01:30.454Z,101290.41
2023-04-18T10:06:36.440Z,101295.66
2023-04-18T10:11:40.354Z,101283.50
2023-04-18T10:16:45.495Z,101288.84
2023-04-18T10:21:55.368Z,101288.00
2023-04-18T10:26:59.501Z,101290.69
2023-04-18T10:32:07.274Z,101292.50
2023-04-18T10:37:12.615Z,101289.88
2023-04-18T10:42:16.222Z,101294.34
2023-04-18T10:47:21.986Z,101302.97
2023-04-18T10:52:28.599Z,101306.38
2023-04-18T10:57:39.907Z,101308.84
2023-04-18T11:02:51.481Z,101319.41
2023-04-18T11:07:57.118Z,101323.75
2023-04-18T11:13:01.495Z,101312.53
2023-04-18T11:18:06.072Z,101321.19
2023-04-18T11:23:19.732Z,101332.47
2023-04-18T11:28:23.898Z,101336.84
2023-04-18T11:33:29.607Z,101339.50
2023-04-18T11:38:34.891Z,101343.09
2023-04-18T11:43:38.572Z,101350.06
2023-04-18T11:48:43.562Z,101356.25
2023-04-18T11:53:48.903Z,101351.13
2023-04-18T11:58:52.752Z,101358.13
2023-04-18T12:04:04.063Z,101362.47
2023-04-18T12:09:14.008Z,101377.22
2023-04-18T12:14:23.781Z,101377.22
2023-04-18T12:19:28.363Z,101387.63
2023-04-18T12:24:33.975Z,101385.91
2023-04-18T12:29:37.689Z,101381.59
2023-04-18T12:34:41.295Z,101393.75
2023-04-18T12:39:46.578Z,101388.53
2023-04-18T12:44:50.213Z,101399.78
2023-04-18T12:49:53.817Z,101406.72
2023-04-18T12:54:59.096Z,101406.72
2023-04-18T13:00:02.967Z,101422.31
2023-04-18T13:05:08.562Z,101433.56
2023-04-18T13:10:15.313Z,101443.06
2023-04-18T13:15:18.923Z,101448.25
2023-04-18T13:20:22.584Z,101444.78
2023-04-18T13:25:28.001Z,101454.31
2023-04-18T13:30:31.627Z,101459.47
2023-04-18T13:35:36.630Z,101469.84
2023-04-18T13:40:41.882Z,101461.19
2023-04-18T13:45:45.536Z,101468.13
2023-04-18T13:50:49.142Z,101467.25
2023-04-18T13:55:54.448Z,101472.47
2023-04-18T14:00:58.045Z,101475.94
2023-04-18T14:06:01.649Z,101492.41
2023-04-18T14:11:07.092Z,101510.59
2023-04-18T14:16:10.743Z,101505.41
2023-04-18T14:21:14.444Z,101512.41
2023-04-18T14:26:19.871Z,101506.34
2023-04-18T14:31:23.477Z,101515.88
2023-04-18T14:36:27.793Z,101514.00
2023-04-18T14:41:33.189Z,101528.66
2023-04-18T14:46:36.878Z,101538.06
2023-04-18T14:51:40.496Z,101550.09
2023-04-18T14:56:45.746Z,101565.53
2023-04-18T15:01:49.435Z,101560.13
2023-04-18T15:06:53.112Z,101578.00
2023-04-18T15:11:58.409Z,101579.38
2023-04-18T15:17:02.269Z,101586.69
2023-04-18T15:22:05.964Z,101595.72
2023-04-18T15:27:12.342Z,101592.38
2023-04-18T15:32:16.029Z,101604.88
2023-04-18T15:37:19.647Z,101605.06
2023-04-18T15:42:24.922Z,101614.31
2023-04-18T15:47:28.580Z,101610.66
2023-04-18T15:52:32.257Z,101616.16
2023-04-18T15:57:37.518Z,101620.38
2023-04-18T16:02:41.173Z,101616.88
2023-04-18T16:07:44.961Z,101618.63
2023-04-18T16:12:50.194Z,101627.28
2023-04-18T16:17:53.855Z,101632.03
2023-04-18T16:22:57.531Z,101627.66
2023-04-18T16:28:02.816Z,101630.03
2023-04-18T16:33:06.554Z,101637.00
2023-04-18T16:38:10.173Z,101634.06
2023-04-18T16:43:15.437Z,101631.50
2023-04-18T16:48:19.025Z,101642.22
2023-04-18T16:53:23.249Z,101633.06
2023-04-18T16:58:28.531Z,101638.72
2023-04-18T17:03:32.289Z,101641.50
2023-04-18T17:08:36.086Z,101644.59
2023-04-18T17:13:41.361Z,101643.72
2023-04-18T17:18:45.048Z,101652.16
2023-04-18T17:23:48.670Z,101642.66
2023-04-18T17:28:54.060Z,101658.03
2023-04-18T17:33:57.756Z,101655.25
2023-04-18T17:39:01.530Z,101657.44
2023-04-18T17:44:07.246Z,101649.78
2023-04-18T17:49:10.112Z,101653.56
2023-04-18T17:54:13.770Z,101654.22
2023-04-18T17:59:19.102Z,101651.78
2023-04-18T18:04:25.750Z,101655.03
2023-04-18T18:09:30.150Z,101669.94
2023-04-18T18:14:35.362Z,101666.25
2023-04-18T18:19:38.995Z,101673.72
2023-04-18T18:24:42.652Z,101684.66
2023-04-18T18:29:47.972Z,101693.84
2023-04-18T18:34:51.596Z,101695.84
2023-04-18T18:39:55.841Z,101692.06
2023-04-18T18:45:01.118Z,101687.72
2023-04-18T18:50:05.126Z,101673.56
2023-04-18T18:55:09.796Z,101667.03
2023-04-18T19:00:15.750Z,101680.09
2023-04-18T19:05:19.390Z,101680.09
2023-04-18T19:10:22.969Z,101669.88
2023-04-18T19:15:28.371Z,101674.88
2023-04-18T19:20:31.182Z,101669.28
2023-04-18T19:25:34.947Z,101665.44
2023-04-18T19:30:40.343Z,101666.22
2023-04-18T19:35:43.262Z,101654.75
2023-04-18T19:40:47.596Z,101646.41
2023-04-18T19:45:55.403Z,101643.94
2023-04-18T19:50:59.114Z,101626.19
2023-04-18T19:56:02.741Z,101627.28
2023-04-18T20:01:08.075Z,101626.97
2023-04-18T20:06:11.915Z,101623.97
2023-04-18T20:11:15.581Z,101609.66
2023-04-18T20:16:21.837Z,101626.06
2023-04-18T20:21:25.458Z,101615.91
2023-04-18T20:26:29.168Z,101617.06
2023-04-18T20:31:34.449Z,101606.56
2023-04-18T20:36:38.196Z,101601.91
2023-04-18T20:41:41.992Z,101601.66
2023-04-18T20:46:47.242Z,101594.59
2023-04-18T20:51:50.846Z,101597.91
2023-04-18T20:56:54.447Z,101608.34
2023-04-18T21:01:59.882Z,101595.31
2023-04-18T21:07:02.793Z,101600.75
2023-04-18T21:12:07.040Z,101597.88
2023-04-18T21:17:12.416Z,101598.03
2023-04-18T21:22:16.381Z,101604.06
2023-04-18T21:27:20.041Z,101604.88
2023-04-18T21:32:25.396Z,101599.69
2023-04-18T21:37:29.061Z,101601.25
2023-04-18T21:42:32.650Z,101598.78
2023-04-18T21:47:38.035Z,101595.88
2023-04-18T21:52:41.672Z,101590.69
2023-04-18T21:57:45.299Z,101586.03
2023-04-18T22:02:50.738Z,101569.38
2023-04-18T22:07:58.244Z,101569.38
2023-04-18T22:13:03.759Z,101558.94
2023-04-18T22:18:09.705Z,101564.66
2023-04-18T22:23:13.386Z,101556.69
2023-04-18T22:28:17.180Z,101558.34
2023-04-18T22:33:22.484Z,101548.66
2023-04-18T22:38:26.678Z,101551.28
2023-04-18T22:43:30.304Z,101560.13
2023-04-18T22:48:37.809Z,101548.31
2023-04-18T22:53:41.399Z,101544.41
2023-04-18T22:58:45.000Z,101542.25
2023-04-18T23:03:50.411Z,101535.59
2023-04-18T23:08:53.526Z,101535.09
2023-04-18T23:13:57.222Z,101535.59
2023-04-18T23:19:02.505Z,101534.28
2023-04-18T23:24:06.484Z,101531.50
2023-04-18T23:29:10.147Z,101522.22
2023-04-18T23:34:15.707Z,101516.81
2023-04-18T23:39:18.697Z,101521.00
2023-04-18T23:44:22.328Z,101510.28
2023-04-18T23:49:28.279Z,101520.50
2023-04-18T23:54:31.860Z,101518.91
2023-04-18T23:59:35.442Z,101521.31
